Hlavní strana
METAR-TAF:

METAR-TAF

Letiště :

Owensboro-Daviess County Airport

Owensboro, Kentucky, Spojené státy americké

zeměpisná šířka: 37-44N, zeměpisná délka: 087-10W, výška: 124 m

Aktuální stav počasí

Zpráva byla vytvořena před 48 minutami, v 17:56 UTC
vítr z různých směrů 5 kt
Teplota 13°C
Vlhkost vzduchu 38%
Tlak 1033 hPa
Viditelnost: 16.1 km
Jasno

METAR: KOWB 181756Z VRB05KT 10SM CLR 13/M01 A3051 RMK AO2 SLP346 T01331006 10133 20056 58016

Čas: 13:44 (18:44 UTC)

Předpověď počasí

Zpráva byla vytvořena před 1 hodinou a 24 minutami, v 17:20 UTC
Předpověď platná od 18 v 18 UTC do 19 v 18 UTC
vítr z různých směrů 4 kt
Viditelnost: 10 km
Skoro jasno ve výšce 25000 ft
Od 19 v 0100 UTC
Severní vítr kt
Viditelnost: 10 km
Oblačno až skoro zataženo ve výšce 25000 ft
Od 19 v 1700 UTC
vítr z různých směrů 4 kt
Viditelnost: 10 km
Oblačno až skoro zataženo ve výšce 12000 ft

TAF: KOWB 181720Z 1818/1918 VRB04KT P6SM FEW250 FM190100 00000KT P6SM BKN250 FM191700 VRB04KT P6SM BKN120

Stav a předpovědi počasí z více než 4 000 letišť (zprávy METAR a TAF).

Červené a žluté tečky na mapě představují dostupné meteorologické stanice.

Když kurzor umístíte na tečku, zobrazí se název stanice.

Pak kliknutím zobrazíte stav a předpověď počasí.

Chcete-li změnit mapu, kliknutím na zelené tlačítko se znaménkem +mapu přiblížíte, kliknutím na zelené tlačítko se znaménkem – mapu oddálíte a kliknutím na zelené šipky přejdete na sousední mapy.


METAR-TAF: